Time;durP1;ratioP1;P1;durP2;ratioP2;P2;SDS_P1;SDS_P2;PMS_P1;PMS_P2;Temp;Humidity;BMP_temperature;BMP_pressure;BME280_temperature;BME280_humidity;BME280_pressure;Samples;Min_cycle;Max_cycle;Signal;HPM_P1;HPM_P2
2023/01/24 00:00:21;;;;;;;0.10;0.10;;;;;;;;;;7376997;19;20623;-70
2023/01/24 00:02:50;;;;;;;0.10;0.10;;;;;;;;;;7376416;19;20651;-70
2023/01/24 00:05:22;;;;;;;0.10;0.10;;;;;;;;;;7377090;19;20641;-70
2023/01/24 00:07:51;;;;;;;0.10;0.10;;;;;;;;;;7377787;19;20615;-70
2023/01/24 00:10:20;;;;;;;0.10;0.10;;;;;;;;;;7377512;19;20642;-70
2023/01/24 00:12:49;;;;;;;0.10;0.10;;;;;;;;;;7376298;19;20693;-70
2023/01/24 00:15:18;;;;;;;0.20;0.20;;;;;;;;;;7374900;19;20646;-70
2023/01/24 00:17:47;;;;;;;0.10;0.10;;;;;;;;;;7376369;19;20690;-70
2023/01/24 00:20:16;;;;;;;0.10;0.10;;;;;;;;;;7375016;19;20690;-70
2023/01/24 00:22:48;;;;;;;0.10;0.10;;;;;;;;;;7375100;19;20737;-70
2023/01/24 00:25:17;;;;;;;0.10;0.10;;;;;;;;;;7376189;19;20607;-70
2023/01/24 00:27:46;;;;;;;0.10;0.10;;;;;;;;;;7368798;19;20626;-70
2023/01/24 00:30:15;;;;;;;0.10;0.10;;;;;;;;;;7373443;19;20658;-70
2023/01/24 00:32:44;;;;;;;0.10;0.10;;;;;;;;;;7372339;19;20709;-70
2023/01/24 00:35:13;;;;;;;0.10;0.10;;;;;;;;;;7372542;19;20631;-70
2023/01/24 00:37:43;;;;;;;0.10;0.10;;;;;;;;;;7374843;19;20669;-70
2023/01/24 00:40:15;;;;;;;0.10;0.10;;;;;;;;;;7373840;19;20665;-70
2023/01/24 00:42:44;;;;;;;0.10;0.10;;;;;;;;;;7373172;19;20663;-70
2023/01/24 00:45:13;;;;;;;0.10;0.10;;;;;;;;;;7373962;19;20653;-70
2023/01/24 00:47:42;;;;;;;0.10;0.10;;;;;;;;;;7374330;19;20666;-70
2023/01/24 00:50:11;;;;;;;0.10;0.10;;;;;;;;;;7373927;19;20619;-70
2023/01/24 00:52:40;;;;;;;0.10;0.10;;;;;;;;;;7373341;19;20736;-70
2023/01/24 00:55:09;;;;;;;0.10;0.10;;;;;;;;;;7372419;19;20694;-70
2023/01/24 00:57:41;;;;;;;0.10;0.10;;;;;;;;;;7373851;19;20741;-70
2023/01/24 01:00:11;;;;;;;0.10;0.10;;;;;;;;;;7375161;19;20149;-70
2023/01/24 01:02:40;;;;;;;0.10;0.10;;;;;;;;;;7372086;19;20708;-70
2023/01/24 01:05:10;;;;;;;0.10;0.10;;;;;;;;;;7374911;19;20626;-70
2023/01/24 01:07:39;;;;;;;0.10;0.10;;;;;;;;;;7371665;19;20682;-70
2023/01/24 01:10:08;;;;;;;0.10;0.10;;;;;;;;;;7374639;19;20606;-70
2023/01/24 01:12:37;;;;;;;0.10;0.10;;;;;;;;;;7372151;19;20709;-70
2023/01/24 01:15:09;;;;;;;0.10;0.10;;;;;;;;;;7372485;19;20623;-70
2023/01/24 01:17:38;;;;;;;0.10;0.10;;;;;;;;;;7373430;19;20623;-70
2023/01/24 01:20:08;;;;;;;0.10;0.10;;;;;;;;;;7373987;19;20653;-70
2023/01/24 01:22:37;;;;;;;0.10;0.10;;;;;;;;;;7373069;19;20655;-70
2023/01/24 01:25:06;;;;;;;0.10;0.10;;;;;;;;;;7375516;19;20607;-70
2023/01/24 01:27:35;;;;;;;0.10;0.10;;;;;;;;;;7373044;19;20635;-70
2023/01/24 01:30:04;;;;;;;0.10;0.10;;;;;;;;;;7373075;19;20623;-70
2023/01/24 01:32:35;;;;;;;0.20;0.20;;;;;;;;;;7376168;19;20658;-70
2023/01/24 01:35:05;;;;;;;0.10;0.10;;;;;;;;;;7378563;19;20623;-70
2023/01/24 01:37:34;;;;;;;0.10;0.10;;;;;;;;;;7379920;19;20635;-70
2023/01/24 01:40:03;;;;;;;0.10;0.10;;;;;;;;;;7379715;19;20695;-70
2023/01/24 01:42:40;;;;;;;0.10;0.10;;;;;;;;;;7378471;19;20658;-70
2023/01/24 01:45:25;;;;;;;0.10;0.10;;;;;;;;;;7380494;19;20614;-70
2023/01/24 01:47:57;;;;;;;0.10;0.10;;;;;;;;;;7380345;19;20673;-70
2023/01/24 01:50:29;;;;;;;0.10;0.10;;;;;;;;;;7381891;19;20650;-70
2023/01/24 01:53:00;;;;;;;0.10;0.10;;;;;;;;;;7379124;19;20709;-70
2023/01/24 01:55:34;;;;;;;0.10;0.10;;;;;;;;;;7371599;19;20697;-70
2023/01/24 01:58:04;;;;;;;0.10;0.10;;;;;;;;;;7378509;19;20606;-70
2023/01/24 02:00:34;;;;;;;0.10;0.10;;;;;;;;;;7378519;19;20626;-70
2023/01/24 02:05:48;;;;;;;0.10;0.10;;;;;;;;;;7377110;19;20653;-70
2023/01/24 02:08:20;;;;;;;0.10;0.10;;;;;;;;;;7376948;19;20615;-70
2023/01/24 02:13:35;;;;;;;0.10;0.10;;;;;;;;;;7376841;19;20669;-69
2023/01/24 02:16:04;;;;;;;0.10;0.10;;;;;;;;;;7377254;19;20685;-70
2023/01/24 02:18:37;;;;;;;0.10;0.10;;;;;;;;;;7377570;19;20610;-70
2023/01/24 02:21:07;;;;;;;0.10;0.10;;;;;;;;;;7378885;19;20627;-70
2023/01/24 02:23:42;;;;;;;0.10;0.10;;;;;;;;;;7377917;19;20622;-70
2023/01/24 02:26:15;;;;;;;0.10;0.10;;;;;;;;;;7378261;19;20648;-70
2023/01/24 02:28:47;;;;;;;0.10;0.10;;;;;;;;;;7377322;19;20638;-70
2023/01/24 02:31:17;;;;;;;0.10;0.10;;;;;;;;;;7378015;19;20654;-70
2023/01/24 02:33:46;;;;;;;0.10;0.10;;;;;;;;;;7377804;19;20634;-70
2023/01/24 02:36:22;;;;;;;0.10;0.10;;;;;;;;;;7374538;19;20713;-70
2023/01/24 02:38:56;;;;;;;0.10;0.10;;;;;;;;;;7378011;19;20672;-70
2023/01/24 02:41:30;;;;;;;0.10;0.10;;;;;;;;;;7378254;19;20662;-70
2023/01/24 02:44:01;;;;;;;0.10;0.10;;;;;;;;;;7376696;19;20673;-70
2023/01/24 02:46:32;;;;;;;0.10;0.10;;;;;;;;;;7378140;19;20665;-70
2023/01/24 02:49:01;;;;;;;0.10;0.10;;;;;;;;;;7376511;19;20676;-70
2023/01/24 02:54:11;;;;;;;0.10;0.10;;;;;;;;;;7376589;19;20630;-70
2023/01/24 02:59:24;;;;;;;0.10;0.10;;;;;;;;;;7376685;19;20615;-70
2023/01/24 03:01:53;;;;;;;0.10;0.10;;;;;;;;;;7376292;19;20713;-70
2023/01/24 03:04:22;;;;;;;0.10;0.10;;;;;;;;;;7375792;19;20611;-70
2023/01/24 03:06:51;;;;;;;0.10;0.10;;;;;;;;;;7377338;19;20639;-70
2023/01/24 03:09:33;;;;;;;0.10;0.10;;;;;;;;;;7375036;19;20669;-70
2023/01/24 03:36:31;;;;;;;0.10;0.10;;;;;;;;;;7375194;19;20762;-70
2023/01/24 03:41:43;;;;;;;0.10;0.10;;;;;;;;;;7375285;19;20654;-70
2023/01/24 03:44:15;;;;;;;0.10;0.10;;;;;;;;;;7375072;19;20634;-70
2023/01/24 03:46:44;;;;;;;0.10;0.10;;;;;;;;;;7376183;19;20619;-70
2023/01/24 03:49:16;;;;;;;0.10;0.10;;;;;;;;;;7374187;19;20627;-70
2023/01/24 03:54:27;;;;;;;0.10;0.10;;;;;;;;;;7372251;19;20665;-70
2023/01/24 03:57:04;;;;;;;0.10;0.10;;;;;;;;;;7375269;19;20745;-70
2023/01/24 03:59:36;;;;;;;0.10;0.10;;;;;;;;;;7374153;19;20641;-70
2023/01/24 04:02:06;;;;;;;0.10;0.10;;;;;;;;;;7375418;19;20695;-70
2023/01/24 04:07:22;;;;;;;0.10;0.10;;;;;;;;;;7374877;19;20603;-70
2023/01/24 04:09:51;;;;;;;0.10;0.10;;;;;;;;;;7375507;19;20626;-70
2023/01/24 04:12:20;;;;;;;0.10;0.10;;;;;;;;;;7371809;19;20662;-70
2023/01/24 04:14:52;;;;;;;0.10;0.10;;;;;;;;;;7373921;19;20694;-70
2023/01/24 04:17:21;;;;;;;0.10;0.10;;;;;;;;;;7374350;19;20631;-70
2023/01/24 04:19:54;;;;;;;0.10;0.10;;;;;;;;;;7374565;19;20657;-70
2023/01/24 04:22:23;;;;;;;0.10;0.10;;;;;;;;;;7372726;19;20659;-70
2023/01/24 04:24:55;;;;;;;0.10;0.10;;;;;;;;;;7374004;19;20603;-70
2023/01/24 04:27:26;;;;;;;0.10;0.10;;;;;;;;;;7373703;19;20668;-70
2023/01/24 04:30:24;;;;;;;0.10;0.10;;;;;;;;;;7375541;19;20653;-70
2023/01/24 04:32:56;;;;;;;0.10;0.10;;;;;;;;;;7372809;19;20658;-70
2023/01/24 04:35:28;;;;;;;0.10;0.10;;;;;;;;;;7372657;19;20670;-70
2023/01/24 04:38:02;;;;;;;0.10;0.10;;;;;;;;;;7374050;19;20615;-70
2023/01/24 04:40:40;;;;;;;0.10;0.10;;;;;;;;;;7373673;19;20619;-70
2023/01/24 04:43:09;;;;;;;0.10;0.10;;;;;;;;;;7369897;19;20802;-70
2023/01/24 04:45:43;;;;;;;0.10;0.10;;;;;;;;;;7372343;19;20152;-70
2023/01/24 04:48:15;;;;;;;0.10;0.10;;;;;;;;;;7373421;19;20657;-70
2023/01/24 04:50:44;;;;;;;0.10;0.10;;;;;;;;;;7373317;19;20670;-70
2023/01/24 04:53:13;;;;;;;0.10;0.10;;;;;;;;;;7371056;19;20662;-70
2023/01/24 04:55:43;;;;;;;0.10;0.10;;;;;;;;;;7372217;19;20641;-70
2023/01/24 04:58:12;;;;;;;0.10;0.10;;;;;;;;;;7372662;19;20734;-70
2023/01/24 05:00:44;;;;;;;0.10;0.10;;;;;;;;;;7372877;19;20619;-70
2023/01/24 05:03:14;;;;;;;0.10;0.10;;;;;;;;;;7371134;19;20704;-70
2023/01/24 05:05:43;;;;;;;0.10;0.10;;;;;;;;;;7375254;19;20606;-70
2023/01/24 05:08:12;;;;;;;0.10;0.10;;;;;;;;;;7381447;19;20686;-70
2023/01/24 05:10:41;;;;;;;0.10;0.10;;;;;;;;;;7380764;19;20661;-70
2023/01/24 05:13:10;;;;;;;0.10;0.10;;;;;;;;;;7378802;19;20654;-70
2023/01/24 05:15:40;;;;;;;0.10;0.10;;;;;;;;;;7378743;19;20630;-70
2023/01/24 05:18:12;;;;;;;0.10;0.10;;;;;;;;;;7380776;19;20639;-70
2023/01/24 05:20:41;;;;;;;0.10;0.10;;;;;;;;;;7380908;19;20660;-69
2023/01/24 05:23:10;;;;;;;0.10;0.10;;;;;;;;;;7378967;19;20721;-70
2023/01/24 05:25:43;;;;;;;0.10;0.10;;;;;;;;;;7379685;19;20619;-70
2023/01/24 05:28:12;;;;;;;0.10;0.10;;;;;;;;;;7381041;19;20615;-70
2023/01/24 05:30:45;;;;;;;0.10;0.10;;;;;;;;;;7378940;19;20629;-70
2023/01/24 05:33:32;;;;;;;0.10;0.10;;;;;;;;;;7379740;19;20634;-69
2023/01/24 05:36:01;;;;;;;0.10;0.10;;;;;;;;;;7378667;19;20653;-69
2023/01/24 05:38:35;;;;;;;0.10;0.10;;;;;;;;;;7381484;19;20634;-68
2023/01/24 05:41:04;;;;;;;0.10;0.10;;;;;;;;;;7380051;19;20733;-68
2023/01/24 05:43:34;;;;;;;0.17;0.17;;;;;;;;;;7380441;19;20615;-68
2023/01/24 05:46:03;;;;;;;0.10;0.10;;;;;;;;;;7380497;19;20610;-68
2023/01/24 05:48:39;;;;;;;0.10;0.10;;;;;;;;;;7379987;19;20623;-69
2023/01/24 05:51:09;;;;;;;0.10;0.10;;;;;;;;;;7381289;19;20631;-71
2023/01/24 05:53:39;;;;;;;0.10;0.10;;;;;;;;;;7378380;19;20745;-70
2023/01/24 05:56:09;;;;;;;0.10;0.10;;;;;;;;;;7377932;19;20643;-70
2023/01/24 05:58:39;;;;;;;0.10;0.10;;;;;;;;;;7378145;19;20610;-71
2023/01/24 06:01:11;;;;;;;0.13;0.13;;;;;;;;;;7378486;19;20658;-71
2023/01/24 06:03:47;;;;;;;0.10;0.10;;;;;;;;;;7377872;19;20669;-70
2023/01/24 06:06:17;;;;;;;0.10;0.10;;;;;;;;;;7378514;19;20630;-71
2023/01/24 06:08:46;;;;;;;0.10;0.10;;;;;;;;;;7377722;19;20618;-71
2023/01/24 06:11:16;;;;;;;0.10;0.10;;;;;;;;;;7375633;19;20647;-71
2023/01/24 06:13:47;;;;;;;0.10;0.10;;;;;;;;;;7376741;19;20747;-72
2023/01/24 06:16:17;;;;;;;0.10;0.10;;;;;;;;;;7376246;19;20698;-71
2023/01/24 06:18:49;;;;;;;0.10;0.10;;;;;;;;;;7377557;19;20627;-70
2023/01/24 06:21:22;;;;;;;0.10;0.10;;;;;;;;;;7377584;19;20638;-68
2023/01/24 06:23:51;;;;;;;0.10;0.10;;;;;;;;;;7374746;19;20792;-70
2023/01/24 06:26:22;;;;;;;0.10;0.10;;;;;;;;;;7377878;19;20181;-70
2023/01/24 06:28:52;;;;;;;0.10;0.10;;;;;;;;;;7377722;19;20642;-70
2023/01/24 06:31:27;;;;;;;0.10;0.10;;;;;;;;;;7378219;19;20725;-70
2023/01/24 06:34:06;;;;;;;0.10;0.10;;;;;;;;;;7378475;19;20666;-70
2023/01/24 06:36:39;;;;;;;0.10;0.10;;;;;;;;;;7379123;19;20611;-73
2023/01/24 06:39:12;;;;;;;0.10;0.10;;;;;;;;;;7379538;19;20618;-72
2023/01/24 06:41:41;;;;;;;0.10;0.10;;;;;;;;;;7377537;19;20689;-72
2023/01/24 06:44:11;;;;;;;0.10;0.10;;;;;;;;;;7378205;19;20599;-72
2023/01/24 06:46:40;;;;;;;0.10;0.10;;;;;;;;;;7378519;19;20678;-72
2023/01/24 06:49:12;;;;;;;0.10;0.10;;;;;;;;;;7373216;19;20623;-72
2023/01/24 06:51:41;;;;;;;0.10;0.10;;;;;;;;;;7377248;19;20735;-71
2023/01/24 06:54:10;;;;;;;0.10;0.10;;;;;;;;;;7376562;19;20642;-72
2023/01/24 06:56:40;;;;;;;0.10;0.10;;;;;;;;;;7376953;19;20626;-72
2023/01/24 06:59:09;;;;;;;0.10;0.10;;;;;;;;;;7377603;19;20630;-71
2023/01/24 07:01:38;;;;;;;0.10;0.10;;;;;;;;;;7378245;19;20714;-71
2023/01/24 07:04:07;;;;;;;0.10;0.10;;;;;;;;;;7376064;19;20667;-72
2023/01/24 07:06:38;;;;;;;0.17;0.17;;;;;;;;;;7378709;19;20746;-71
2023/01/24 07:09:08;;;;;;;0.10;0.10;;;;;;;;;;7378095;19;20648;-71
2023/01/24 07:11:37;;;;;;;0.10;0.10;;;;;;;;;;7376965;19;20814;-72
2023/01/24 07:14:09;;;;;;;0.10;0.10;;;;;;;;;;7376963;19;20746;-72
2023/01/24 07:16:38;;;;;;;0.10;0.10;;;;;;;;;;7375250;19;20737;-72
2023/01/24 07:19:07;;;;;;;0.10;0.10;;;;;;;;;;7377458;19;20681;-72
2023/01/24 07:21:42;;;;;;;0.10;0.10;;;;;;;;;;7374757;19;20725;-72
2023/01/24 07:24:13;;;;;;;0.10;0.10;;;;;;;;;;7376813;19;20152;-71
2023/01/24 07:26:42;;;;;;;0.10;0.10;;;;;;;;;;7375975;19;20657;-72
2023/01/24 07:29:11;;;;;;;0.10;0.10;;;;;;;;;;7373804;19;20619;-72
2023/01/24 07:31:40;;;;;;;0.10;0.10;;;;;;;;;;7375429;19;20650;-72
2023/01/24 07:34:09;;;;;;;0.10;0.10;;;;;;;;;;7376951;19;20669;-70
2023/01/24 07:36:41;;;;;;;0.10;0.10;;;;;;;;;;7376014;19;20639;-72
2023/01/24 07:39:10;;;;;;;0.10;0.10;;;;;;;;;;7376730;19;20627;-71
2023/01/24 07:41:40;;;;;;;0.10;0.10;;;;;;;;;;7376246;19;20647;-72
2023/01/24 07:44:10;;;;;;;0.10;0.10;;;;;;;;;;7376610;19;20653;-72
2023/01/24 07:46:39;;;;;;;0.17;0.17;;;;;;;;;;7377063;19;20619;-72
2023/01/24 07:49:08;;;;;;;0.10;0.10;;;;;;;;;;7375020;19;20627;-70
2023/01/24 07:51:37;;;;;;;0.10;0.10;;;;;;;;;;7375798;19;20721;-72
2023/01/24 07:54:09;;;;;;;0.10;0.10;;;;;;;;;;7376074;19;20615;-72
2023/01/24 07:56:38;;;;;;;0.10;0.10;;;;;;;;;;7375997;19;20674;-72
2023/01/24 07:59:07;;;;;;;0.10;0.10;;;;;;;;;;7374782;19;20619;-72
2023/01/24 08:01:36;;;;;;;0.10;0.10;;;;;;;;;;7376342;19;20745;-72
2023/01/24 08:04:05;;;;;;;0.10;0.10;;;;;;;;;;7374992;19;20654;-73
2023/01/24 08:06:34;;;;;;;0.10;0.10;;;;;;;;;;7374966;19;20647;-70
2023/01/24 08:09:04;;;;;;;0.10;0.10;;;;;;;;;;7374955;19;20650;-70
2023/01/24 08:11:35;;;;;;;0.10;0.10;;;;;;;;;;7374754;19;20655;-70
2023/01/24 08:14:04;;;;;;;0.13;0.13;;;;;;;;;;7376182;19;20683;-70
2023/01/24 08:16:33;;;;;;;0.10;0.10;;;;;;;;;;7374018;19;20623;-70
2023/01/24 08:19:03;;;;;;;0.10;0.10;;;;;;;;;;7375329;19;20675;-71
2023/01/24 08:21:32;;;;;;;0.10;0.10;;;;;;;;;;7374131;19;20725;-70
2023/01/24 08:24:01;;;;;;;0.10;0.10;;;;;;;;;;7375079;19;20639;-70
2023/01/24 08:26:30;;;;;;;0.10;0.10;;;;;;;;;;7375676;19;20611;-70
2023/01/24 08:29:02;;;;;;;0.10;0.10;;;;;;;;;;7374429;19;20611;-70
2023/01/24 08:31:31;;;;;;;0.10;0.10;;;;;;;;;;7374412;19;20670;-70
2023/01/24 08:34:00;;;;;;;0.00;0.00;;;;;;;;;;7373864;19;20610;-70
2023/01/24 08:36:29;;;;;;;0.10;0.10;;;;;;;;;;7374808;19;20741;-70
2023/01/24 08:38:58;;;;;;;0.20;0.20;;;;;;;;;;7373566;19;20627;-73
2023/01/24 08:41:27;;;;;;;0.10;0.10;;;;;;;;;;7372514;19;20746;-70
2023/01/24 08:43:56;;;;;;;0.10;0.10;;;;;;;;;;7374015;19;20622;-70
2023/01/24 08:46:29;;;;;;;0.10;0.10;;;;;;;;;;7374637;19;20631;-70
2023/01/24 08:48:57;;;;;;;0.10;0.10;;;;;;;;;;7373698;19;20615;-71
2023/01/24 08:51:29;;;;;;;0.10;0.10;;;;;;;;;;7373353;19;20782;-71
2023/01/24 08:53:58;;;;;;;0.10;0.10;;;;;;;;;;7374330;19;20726;-70
2023/01/24 08:56:27;;;;;;;0.10;0.10;;;;;;;;;;7374506;19;20681;-71
2023/01/24 08:58:56;;;;;;;0.20;0.20;;;;;;;;;;7374197;19;20638;-71
2023/01/24 09:01:28;;;;;;;0.20;0.20;;;;;;;;;;7374663;19;20634;-71
2023/01/24 09:03:59;;;;;;;0.10;0.10;;;;;;;;;;7374147;19;20657;-71
2023/01/24 09:06:28;;;;;;;0.10;0.10;;;;;;;;;;7373484;19;20635;-70
2023/01/24 09:08:57;;;;;;;0.10;0.10;;;;;;;;;;7374131;19;20630;-70
2023/01/24 09:11:26;;;;;;;0.10;0.10;;;;;;;;;;7373588;19;20667;-71
2023/01/24 09:13:55;;;;;;;0.10;0.10;;;;;;;;;;7372662;19;20635;-71
2023/01/24 09:16:26;;;;;;;0.10;0.10;;;;;;;;;;7373260;19;20640;-71
2023/01/24 09:18:58;;;;;;;0.10;0.10;;;;;;;;;;7373581;19;20729;-71
2023/01/24 09:21:27;;;;;;;0.10;0.10;;;;;;;;;;7373210;19;20662;-70
2023/01/24 09:23:56;;;;;;;0.20;0.20;;;;;;;;;;7372611;19;20670;-71
2023/01/24 09:26:25;;;;;;;0.10;0.10;;;;;;;;;;7374995;19;20619;-70
2023/01/24 09:28:55;;;;;;;0.10;0.10;;;;;;;;;;7373386;19;20611;-71
2023/01/24 09:31:24;;;;;;;0.10;0.10;;;;;;;;;;7373724;19;20655;-71
2023/01/24 09:33:53;;;;;;;0.10;0.10;;;;;;;;;;7372076;19;20741;-71
2023/01/24 09:36:24;;;;;;;0.10;0.10;;;;;;;;;;7374788;19;20635;-70
2023/01/24 09:38:53;;;;;;;0.10;0.10;;;;;;;;;;7373814;19;20655;-71
2023/01/24 09:41:29;;;;;;;0.10;0.10;;;;;;;;;;7372983;19;20662;-71
2023/01/24 09:44:01;;;;;;;0.10;0.10;;;;;;;;;;7373244;19;20630;-71
2023/01/24 09:46:33;;;;;;;0.10;0.10;;;;;;;;;;7374303;19;20618;-71
2023/01/24 09:49:08;;;;;;;0.10;0.10;;;;;;;;;;7373232;19;20669;-71
2023/01/24 09:51:42;;;;;;;0.10;0.10;;;;;;;;;;7373735;19;20688;-71
2023/01/24 09:54:17;;;;;;;0.10;0.10;;;;;;;;;;7380324;19;20630;-71
2023/01/24 09:56:48;;;;;;;0.10;0.10;;;;;;;;;;7380016;19;20676;-71
2023/01/24 09:59:25;;;;;;;0.10;0.10;;;;;;;;;;7380105;19;20626;-71
2023/01/24 10:01:55;;;;;;;0.10;0.10;;;;;;;;;;7379380;19;20654;-72
2023/01/24 10:04:24;;;;;;;0.10;0.10;;;;;;;;;;7379555;19;20630;-72
2023/01/24 10:07:08;;;;;;;0.10;0.10;;;;;;;;;;7380259;19;20622;-72
2023/01/24 10:09:47;;;;;;;0.10;0.10;;;;;;;;;;7381007;19;20619;-72
2023/01/24 10:12:21;;;;;;;0.10;0.10;;;;;;;;;;7378506;19;20729;-72
2023/01/24 10:15:00;;;;;;;0.10;0.10;;;;;;;;;;7381685;19;20644;-71
2023/01/24 10:17:44;;;;;;;0.10;0.10;;;;;;;;;;7378539;19;20626;-72
2023/01/24 10:20:19;;;;;;;0.10;0.10;;;;;;;;;;7380590;19;20642;-71
2023/01/24 10:22:56;;;;;;;0.20;0.20;;;;;;;;;;7377894;19;20708;-72
2023/01/24 10:25:28;;;;;;;0.10;0.10;;;;;;;;;;7378667;19;20610;-72
2023/01/24 10:28:01;;;;;;;0.10;0.10;;;;;;;;;;7379150;19;20627;-71
2023/01/24 10:30:33;;;;;;;0.00;0.00;;;;;;;;;;7379080;19;20665;-72
2023/01/24 10:33:04;;;;;;;0.10;0.10;;;;;;;;;;7379837;19;20713;-69
2023/01/24 10:35:37;;;;;;;0.10;0.10;;;;;;;;;;7375980;19;20646;-69
2023/01/24 10:38:08;;;;;;;0.10;0.10;;;;;;;;;;7375507;19;20630;-69
2023/01/24 10:40:51;;;;;;;0.10;0.10;;;;;;;;;;7378279;19;20619;-69
2023/01/24 10:43:20;;;;;;;0.10;0.10;;;;;;;;;;7378444;19;20622;-69
2023/01/24 10:45:53;;;;;;;0.10;0.10;;;;;;;;;;7377542;19;20603;-69
2023/01/24 10:48:38;;;;;;;0.10;0.10;;;;;;;;;;7377011;19;20618;-69
2023/01/24 10:51:14;;;;;;;0.10;0.10;;;;;;;;;;7377855;19;20626;-69
2023/01/24 10:53:43;;;;;;;0.10;0.10;;;;;;;;;;7377716;19;20626;-69
2023/01/24 10:56:16;;;;;;;0.10;0.10;;;;;;;;;;7377612;19;20693;-69
2023/01/24 10:58:46;;;;;;;0.10;0.10;;;;;;;;;;7376732;19;20607;-71
2023/01/24 11:01:20;;;;;;;0.20;0.20;;;;;;;;;;7377582;19;20654;-71
2023/01/24 11:03:50;;;;;;;0.10;0.10;;;;;;;;;;7376135;19;20660;-71
2023/01/24 11:06:26;;;;;;;0.10;0.10;;;;;;;;;;7377843;19;20631;-72
2023/01/24 11:09:04;;;;;;;0.10;0.10;;;;;;;;;;7377481;19;20654;-72
2023/01/24 11:11:36;;;;;;;0.10;0.10;;;;;;;;;;7376026;19;20723;-72
2023/01/24 11:14:05;;;;;;;0.10;0.10;;;;;;;;;;7376351;19;20631;-71
2023/01/24 11:16:36;;;;;;;0.10;0.10;;;;;;;;;;7377304;19;20661;-72
2023/01/24 11:19:06;;;;;;;0.10;0.10;;;;;;;;;;7375138;19;20623;-71
2023/01/24 11:21:35;;;;;;;0.10;0.10;;;;;;;;;;7374632;19;20714;-71
2023/01/24 11:24:11;;;;;;;0.10;0.10;;;;;;;;;;7376477;19;20627;-71
2023/01/24 11:26:54;;;;;;;0.10;0.10;;;;;;;;;;7376919;19;20661;-71
2023/01/24 11:29:24;;;;;;;0.10;0.10;;;;;;;;;;7376355;19;20668;-71
2023/01/24 11:31:54;;;;;;;0.20;0.20;;;;;;;;;;7374876;19;20647;-71
2023/01/24 11:34:46;;;;;;;0.10;0.10;;;;;;;;;;7375953;19;20676;-71
2023/01/24 11:37:33;;;;;;;0.10;0.10;;;;;;;;;;7376345;19;20707;-71
2023/01/24 11:40:05;;;;;;;0.10;0.10;;;;;;;;;;7375712;19;20610;-71
2023/01/24 11:42:39;;;;;;;0.10;0.10;;;;;;;;;;7373733;19;20722;-71
2023/01/24 11:45:21;;;;;;;0.10;0.10;;;;;;;;;;7375171;19;20622;-72
2023/01/24 11:47:54;;;;;;;0.10;0.10;;;;;;;;;;7376622;19;20694;-71
2023/01/24 11:50:31;;;;;;;0.10;0.10;;;;;;;;;;7376207;19;20619;-71
2023/01/24 11:53:08;;;;;;;0.10;0.10;;;;;;;;;;7373981;19;20658;-72
2023/01/24 11:55:46;;;;;;;0.10;0.10;;;;;;;;;;7375095;19;20653;-72
2023/01/24 11:58:29;;;;;;;0.10;0.10;;;;;;;;;;7375304;19;20683;-71
2023/01/24 12:01:01;;;;;;;0.10;0.10;;;;;;;;;;7375235;19;20642;-71
2023/01/24 12:03:48;;;;;;;0.10;0.10;;;;;;;;;;7375318;19;20658;-71
2023/01/24 12:06:21;;;;;;;0.10;0.10;;;;;;;;;;7375150;19;20619;-72
2023/01/24 12:08:56;;;;;;;0.10;0.10;;;;;;;;;;7376490;19;20655;-71
2023/01/24 12:11:29;;;;;;;0.10;0.10;;;;;;;;;;7374926;19;20750;-71
2023/01/24 12:14:09;;;;;;;0.10;0.10;;;;;;;;;;7374301;19;20626;-72
2023/01/24 12:16:45;;;;;;;0.10;0.10;;;;;;;;;;7373641;19;20638;-71
2023/01/24 12:19:30;;;;;;;0.10;0.10;;;;;;;;;;7372777;19;21102;-71
2023/01/24 12:22:00;;;;;;;0.10;0.10;;;;;;;;;;7374415;19;20647;-71
2023/01/24 12:24:30;;;;;;;0.10;0.10;;;;;;;;;;7374732;19;20699;-72
2023/01/24 12:27:02;;;;;;;0.10;0.10;;;;;;;;;;7374858;19;20607;-72
2023/01/24 12:29:35;;;;;;;0.10;0.10;;;;;;;;;;7374525;19;20645;-71
2023/01/24 12:32:05;;;;;;;0.10;0.10;;;;;;;;;;7374502;19;20662;-71
2023/01/24 12:34:42;;;;;;;0.10;0.10;;;;;;;;;;7375255;19;20687;-71
2023/01/24 12:37:16;;;;;;;0.10;0.10;;;;;;;;;;7374351;19;20622;-71
2023/01/24 12:39:47;;;;;;;0.10;0.10;;;;;;;;;;7375435;19;20639;-71
2023/01/24 12:42:19;;;;;;;0.10;0.10;;;;;;;;;;7374060;19;20693;-72
2023/01/24 12:44:53;;;;;;;0.10;0.10;;;;;;;;;;7374975;19;20642;-71
2023/01/24 12:47:31;;;;;;;0.10;0.10;;;;;;;;;;7374291;19;20634;-72
2023/01/24 12:50:06;;;;;;;0.10;0.10;;;;;;;;;;7375994;19;20668;-71
2023/01/24 12:52:38;;;;;;;0.10;0.10;;;;;;;;;;7373782;19;20662;-72
2023/01/24 12:55:11;;;;;;;0.10;0.10;;;;;;;;;;7375154;19;20662;-72
2023/01/24 12:57:42;;;;;;;0.10;0.10;;;;;;;;;;7376302;19;20691;-71
2023/01/24 13:00:19;;;;;;;0.10;0.10;;;;;;;;;;7374432;19;20707;-71
2023/01/24 13:03:00;;;;;;;0.10;0.10;;;;;;;;;;7373047;19;20702;-72
2023/01/24 13:05:40;;;;;;;0.10;0.10;;;;;;;;;;7372984;19;20638;-72
2023/01/24 13:08:14;;;;;;;0.10;0.10;;;;;;;;;;7374997;19;20680;-72
2023/01/24 13:10:50;;;;;;;0.10;0.10;;;;;;;;;;7373468;19;20676;-71
2023/01/24 13:13:21;;;;;;;0.10;0.10;;;;;;;;;;7372921;19;20697;-72
2023/01/24 13:16:00;;;;;;;0.10;0.10;;;;;;;;;;7372960;19;20649;-71
2023/01/24 13:18:37;;;;;;;0.10;0.10;;;;;;;;;;7372187;19;20639;-72
2023/01/24 13:21:11;;;;;;;0.10;0.10;;;;;;;;;;7373186;19;20619;-71
2023/01/24 13:23:57;;;;;;;0.10;0.10;;;;;;;;;;7374352;19;20689;-71
2023/01/24 13:26:40;;;;;;;0.10;0.10;;;;;;;;;;7374948;19;20666;-72
2023/01/24 13:29:15;;;;;;;0.10;0.10;;;;;;;;;;7380872;19;20626;-71
2023/01/24 13:31:52;;;;;;;0.10;0.10;;;;;;;;;;7363008;19;20661;-71
2023/01/24 13:34:23;;;;;;;0.10;0.10;;;;;;;;;;7368842;19;20622;-70
2023/01/24 13:36:53;;;;;;;0.10;0.10;;;;;;;;;;7381492;19;20630;-70
2023/01/24 13:39:32;;;;;;;0.10;0.10;;;;;;;;;;7380390;19;20761;-70
2023/01/24 13:42:06;;;;;;;0.10;0.10;;;;;;;;;;7380345;19;20666;-71
2023/01/24 13:44:36;;;;;;;0.10;0.10;;;;;;;;;;7380448;19;20622;-72
2023/01/24 13:47:24;;;;;;;0.10;0.10;;;;;;;;;;7382202;19;20607;-70
2023/01/24 13:50:08;;;;;;;0.10;0.10;;;;;;;;;;7384083;19;20639;-71
2023/01/24 13:52:41;;;;;;;0.10;0.10;;;;;;;;;;7381797;19;21096;-71
2023/01/24 13:55:31;;;;;;;0.10;0.10;;;;;;;;;;7383728;19;20626;-71
2023/01/24 13:58:20;;;;;;;0.10;0.10;;;;;;;;;;7381585;19;20639;-71
2023/01/24 14:00:51;;;;;;;0.10;0.10;;;;;;;;;;7384008;19;20652;-71
2023/01/24 14:03:26;;;;;;;0.10;0.10;;;;;;;;;;7383107;19;20665;-70
2023/01/24 14:05:57;;;;;;;0.10;0.10;;;;;;;;;;7384299;19;20630;-71
2023/01/24 14:08:41;;;;;;;0.10;0.10;;;;;;;;;;7383115;19;20748;-71
2023/01/24 14:11:35;;;;;;;0.10;0.10;;;;;;;;;;7387380;19;20797;-71
2023/01/24 14:14:19;;;;;;;0.10;0.10;;;;;;;;;;7379965;19;20614;-71
2023/01/24 14:16:59;;;;;;;0.10;0.10;;;;;;;;;;7372186;19;20630;-71
2023/01/24 14:19:32;;;;;;;0.10;0.10;;;;;;;;;;7376903;19;20654;-71
2023/01/24 14:22:06;;;;;;;0.10;0.10;;;;;;;;;;7378525;19;20666;-72
2023/01/24 14:24:37;;;;;;;0.10;0.10;;;;;;;;;;7378122;19;20619;-71
2023/01/24 14:27:19;;;;;;;0.17;0.17;;;;;;;;;;7378086;19;20619;-71
2023/01/24 14:29:49;;;;;;;0.13;0.13;;;;;;;;;;7381269;19;20614;-71
2023/01/24 14:32:22;;;;;;;0.10;0.10;;;;;;;;;;7378206;19;20688;-71
2023/01/24 14:35:00;;;;;;;0.10;0.10;;;;;;;;;;7380199;19;20618;-71
2023/01/24 14:37:30;;;;;;;0.10;0.10;;;;;;;;;;7380091;19;20642;-71
2023/01/24 14:40:13;;;;;;;0.10;0.10;;;;;;;;;;7375543;19;20650;-71
2023/01/24 14:42:42;;;;;;;0.10;0.10;;;;;;;;;;7379843;19;20662;-71
2023/01/24 14:45:16;;;;;;;0.10;0.10;;;;;;;;;;7379941;19;20656;-72
2023/01/24 14:47:49;;;;;;;0.10;0.10;;;;;;;;;;7378395;19;20618;-71
2023/01/24 14:50:31;;;;;;;0.10;0.10;;;;;;;;;;7380053;19;20627;-72
2023/01/24 14:53:03;;;;;;;0.10;0.10;;;;;;;;;;7380285;19;20657;-69
2023/01/24 14:55:38;;;;;;;0.10;0.10;;;;;;;;;;7381097;19;20685;-72
2023/01/24 14:58:22;;;;;;;0.10;0.10;;;;;;;;;;7377650;19;20648;-72
2023/01/24 15:00:52;;;;;;;0.10;0.10;;;;;;;;;;7378728;19;20631;-72
2023/01/24 15:03:22;;;;;;;0.10;0.10;;;;;;;;;;7381030;19;20623;-73
2023/01/24 15:05:53;;;;;;;0.10;0.10;;;;;;;;;;7379386;19;20606;-72
2023/01/24 15:08:25;;;;;;;0.10;0.10;;;;;;;;;;7381369;19;20622;-72
2023/01/24 15:11:02;;;;;;;0.10;0.10;;;;;;;;;;7380660;19;20627;-73
2023/01/24 15:13:33;;;;;;;0.10;0.10;;;;;;;;;;7378080;19;20646;-72
2023/01/24 15:16:02;;;;;;;0.10;0.10;;;;;;;;;;7384240;19;20749;-72
2023/01/24 15:18:46;;;;;;;0.10;0.10;;;;;;;;;;7384053;19;20683;-72
2023/01/24 15:21:22;;;;;;;0.10;0.10;;;;;;;;;;7380887;19;20650;-70
2023/01/24 15:23:56;;;;;;;0.10;0.10;;;;;;;;;;7381568;19;20665;-71
2023/01/24 15:26:36;;;;;;;0.10;0.10;;;;;;;;;;7381796;19;20630;-69
2023/01/24 15:29:20;;;;;;;0.10;0.10;;;;;;;;;;7380505;19;20731;-71
2023/01/24 15:31:52;;;;;;;0.10;0.10;;;;;;;;;;7380031;19;20654;-70
2023/01/24 15:34:22;;;;;;;0.10;0.10;;;;;;;;;;7380638;19;20627;-71
2023/01/24 15:36:59;;;;;;;0.10;0.10;;;;;;;;;;7380765;19;20615;-72
2023/01/24 15:39:30;;;;;;;0.10;0.10;;;;;;;;;;7379193;19;20675;-71
2023/01/24 15:44:45;;;;;;;0.10;0.10;;;;;;;;;;7380079;19;20615;-71
2023/01/24 15:51:05;;;;;;;0.10;0.10;;;;;;;;;;7376141;19;20627;-71
2023/01/24 15:53:07;;;;;;;0.10;0.10;;;;;;;;;;7376978;19;20670;-72
2023/01/24 15:55:39;;;;;;;0.10;0.10;;;;;;;;;;7379124;19;20671;-71
2023/01/24 15:58:10;;;;;;;0.10;0.10;;;;;;;;;;7382278;19;20591;-71
2023/01/24 16:00:40;;;;;;;0.10;0.10;;;;;;;;;;7378807;19;20646;-71
2023/01/24 16:03:11;;;;;;;0.10;0.10;;;;;;;;;;7377106;19;20777;-71